sensor_id;sensor_type;location;lat;lon;timestamp;P1;durP1;ratioP1;P2;durP2;ratioP2
15480;SDS011;7842;50.904;6.670;2022-09-27T00:00:21;4.70;;;2.60;;
15480;SDS011;7842;50.904;6.670;2022-09-27T00:02:47;4.80;;;3.03;;
15480;SDS011;7842;50.904;6.670;2022-09-27T00:05:13;5.10;;;3.17;;
15480;SDS011;7842;50.904;6.670;2022-09-27T00:07:39;6.55;;;3.20;;
15480;SDS011;7842;50.904;6.670;2022-09-27T00:10:05;4.80;;;3.40;;
15480;SDS011;7842;50.904;6.670;2022-09-27T00:12:32;5.13;;;3.40;;
15480;SDS011;7842;50.904;6.670;2022-09-27T00:14:59;5.63;;;3.60;;
15480;SDS011;7842;50.904;6.670;2022-09-27T00:17:26;3.50;;;3.08;;
15480;SDS011;7842;50.904;6.670;2022-09-27T00:19:52;3.80;;;3.00;;
15480;SDS011;7842;50.904;6.670;2022-09-27T00:22:20;4.78;;;2.90;;
15480;SDS011;7842;50.904;6.670;2022-09-27T00:24:47;5.78;;;2.40;;
15480;SDS011;7842;50.904;6.670;2022-09-27T00:27:12;3.60;;;2.40;;
15480;SDS011;7842;50.904;6.670;2022-09-27T00:29:38;3.33;;;2.20;;
15480;SDS011;7842;50.904;6.670;2022-09-27T00:32:04;3.10;;;2.03;;
15480;SDS011;7842;50.904;6.670;2022-09-27T00:34:29;4.07;;;2.47;;
15480;SDS011;7842;50.904;6.670;2022-09-27T00:36:55;3.60;;;2.00;;
15480;SDS011;7842;50.904;6.670;2022-09-27T00:39:21;3.67;;;2.30;;
15480;SDS011;7842;50.904;6.670;2022-09-27T00:41:46;4.40;;;2.60;;
15480;SDS011;7842;50.904;6.670;2022-09-27T00:46:55;3.40;;;2.30;;
15480;SDS011;7842;50.904;6.670;2022-09-27T00:49:35;4.05;;;2.95;;
15480;SDS011;7842;50.904;6.670;2022-09-27T00:54:51;4.43;;;3.00;;
15480;SDS011;7842;50.904;6.670;2022-09-27T00:57:21;4.15;;;3.05;;
15480;SDS011;7842;50.904;6.670;2022-09-27T01:00:01;3.90;;;2.70;;
15480;SDS011;7842;50.904;6.670;2022-09-27T01:02:33;5.55;;;2.90;;
15480;SDS011;7842;50.904;6.670;2022-09-27T01:05:00;4.68;;;3.13;;
15480;SDS011;7842;50.904;6.670;2022-09-27T01:07:27;6.20;;;3.88;;
15480;SDS011;7842;50.904;6.670;2022-09-27T01:09:53;4.25;;;3.85;;
15480;SDS011;7842;50.904;6.670;2022-09-27T01:12:23;5.43;;;3.77;;
15480;SDS011;7842;50.904;6.670;2022-09-27T01:17:29;5.33;;;3.23;;
15480;SDS011;7842;50.904;6.670;2022-09-27T01:20:17;5.88;;;2.88;;
15480;SDS011;7842;50.904;6.670;2022-09-27T01:26:08;5.03;;;3.03;;
15480;SDS011;7842;50.904;6.670;2022-09-27T01:28:27;5.50;;;3.33;;
15480;SDS011;7842;50.904;6.670;2022-09-27T01:31:29;5.35;;;3.45;;
15480;SDS011;7842;50.904;6.670;2022-09-27T01:39:22;5.03;;;4.15;;
15480;SDS011;7842;50.904;6.670;2022-09-27T01:47:23;5.47;;;4.00;;
15480;SDS011;7842;50.904;6.670;2022-09-27T01:50:00;5.78;;;3.90;;
15480;SDS011;7842;50.904;6.670;2022-09-27T01:52:36;5.10;;;3.92;;
15480;SDS011;7842;50.904;6.670;2022-09-27T01:55:06;6.57;;;3.90;;
15480;SDS011;7842;50.904;6.670;2022-09-27T01:57:37;5.20;;;4.15;;
15480;SDS011;7842;50.904;6.670;2022-09-27T02:00:06;5.23;;;4.20;;
15480;SDS011;7842;50.904;6.670;2022-09-27T02:03:35;3.97;;;3.58;;
15480;SDS011;7842;50.904;6.670;2022-09-27T02:06:15;5.85;;;3.90;;
15480;SDS011;7842;50.904;6.670;2022-09-27T02:08:26;5.30;;;4.03;;
15480;SDS011;7842;50.904;6.670;2022-09-27T02:11:09;6.88;;;4.05;;
15480;SDS011;7842;50.904;6.670;2022-09-27T02:13:38;4.47;;;2.80;;
15480;SDS011;7842;50.904;6.670;2022-09-27T02:24:44;5.88;;;3.95;;
15480;SDS011;7842;50.904;6.670;2022-09-27T02:30:13;5.28;;;4.00;;
15480;SDS011;7842;50.904;6.670;2022-09-27T02:32:40;6.07;;;3.73;;
15480;SDS011;7842;50.904;6.670;2022-09-27T02:35:07;3.80;;;3.00;;
15480;SDS011;7842;50.904;6.670;2022-09-27T02:37:37;3.70;;;2.60;;
15480;SDS011;7842;50.904;6.670;2022-09-27T02:40:03;2.83;;;2.50;;
15480;SDS011;7842;50.904;6.670;2022-09-27T02:42:29;3.90;;;2.70;;
15480;SDS011;7842;50.904;6.670;2022-09-27T02:44:56;3.58;;;2.67;;
15480;SDS011;7842;50.904;6.670;2022-09-27T02:50:02;4.15;;;2.67;;
15480;SDS011;7842;50.904;6.670;2022-09-27T02:58:11;3.40;;;2.60;;
15480;SDS011;7842;50.904;6.670;2022-09-27T03:03:48;5.32;;;2.40;;
15480;SDS011;7842;50.904;6.670;2022-09-27T03:06:17;2.50;;;2.05;;
15480;SDS011;7842;50.904;6.670;2022-09-27T03:08:45;2.70;;;2.00;;
15480;SDS011;7842;50.904;6.670;2022-09-27T03:11:12;2.25;;;1.73;;
15480;SDS011;7842;50.904;6.670;2022-09-27T03:13:37;2.40;;;2.00;;
15480;SDS011;7842;50.904;6.670;2022-09-27T03:16:04;2.75;;;1.85;;
15480;SDS011;7842;50.904;6.670;2022-09-27T03:18:31;2.70;;;1.98;;
15480;SDS011;7842;50.904;6.670;2022-09-27T03:20:57;2.65;;;1.90;;
15480;SDS011;7842;50.904;6.670;2022-09-27T03:23:22;3.05;;;2.10;;
15480;SDS011;7842;50.904;6.670;2022-09-27T03:25:48;4.50;;;3.17;;
15480;SDS011;7842;50.904;6.670;2022-09-27T03:28:14;4.78;;;4.10;;
15480;SDS011;7842;50.904;6.670;2022-09-27T03:30:40;4.22;;;3.60;;
15480;SDS011;7842;50.904;6.670;2022-09-27T03:33:06;5.53;;;3.90;;
15480;SDS011;7842;50.904;6.670;2022-09-27T03:35:33;4.72;;;3.50;;
15480;SDS011;7842;50.904;6.670;2022-09-27T03:37:59;5.10;;;2.83;;
15480;SDS011;7842;50.904;6.670;2022-09-27T03:40:25;4.00;;;3.20;;
15480;SDS011;7842;50.904;6.670;2022-09-27T03:42:50;3.50;;;3.10;;
15480;SDS011;7842;50.904;6.670;2022-09-27T03:45:16;3.70;;;2.50;;
15480;SDS011;7842;50.904;6.670;2022-09-27T03:47:42;3.17;;;2.40;;
15480;SDS011;7842;50.904;6.670;2022-09-27T03:50:08;4.70;;;2.40;;
15480;SDS011;7842;50.904;6.670;2022-09-27T03:52:35;4.00;;;2.10;;
15480;SDS011;7842;50.904;6.670;2022-09-27T03:55:01;2.47;;;2.10;;
15480;SDS011;7842;50.904;6.670;2022-09-27T03:57:27;4.18;;;2.10;;
15480;SDS011;7842;50.904;6.670;2022-09-27T03:59:54;3.40;;;1.92;;
15480;SDS011;7842;50.904;6.670;2022-09-27T04:02:22;5.30;;;2.17;;
15480;SDS011;7842;50.904;6.670;2022-09-27T04:04:48;3.20;;;2.00;;
15480;SDS011;7842;50.904;6.670;2022-09-27T04:07:13;3.50;;;1.77;;
15480;SDS011;7842;50.904;6.670;2022-09-27T04:09:40;3.92;;;2.13;;
15480;SDS011;7842;50.904;6.670;2022-09-27T04:12:06;4.53;;;1.90;;
15480;SDS011;7842;50.904;6.670;2022-09-27T04:14:32;3.80;;;2.37;;
15480;SDS011;7842;50.904;6.670;2022-09-27T04:16:57;3.53;;;2.17;;
15480;SDS011;7842;50.904;6.670;2022-09-27T04:19:23;3.87;;;2.13;;
15480;SDS011;7842;50.904;6.670;2022-09-27T04:21:49;4.30;;;2.30;;
15480;SDS011;7842;50.904;6.670;2022-09-27T04:24:14;4.40;;;3.60;;
15480;SDS011;7842;50.904;6.670;2022-09-27T04:26:40;6.28;;;3.92;;
15480;SDS011;7842;50.904;6.670;2022-09-27T04:29:06;4.72;;;3.85;;
15480;SDS011;7842;50.904;6.670;2022-09-27T04:31:33;5.15;;;4.25;;
15480;SDS011;7842;50.904;6.670;2022-09-27T04:34:01;5.88;;;3.42;;
15480;SDS011;7842;50.904;6.670;2022-09-27T04:36:26;5.53;;;4.87;;
15480;SDS011;7842;50.904;6.670;2022-09-27T04:38:53;4.07;;;2.80;;
15480;SDS011;7842;50.904;6.670;2022-09-27T04:41:21;5.20;;;4.27;;
15480;SDS011;7842;50.904;6.670;2022-09-27T04:43:48;3.90;;;3.55;;
15480;SDS011;7842;50.904;6.670;2022-09-27T04:46:14;6.30;;;3.95;;
15480;SDS011;7842;50.904;6.670;2022-09-27T04:48:40;3.83;;;2.08;;
15480;SDS011;7842;50.904;6.670;2022-09-27T04:51:06;3.30;;;1.88;;
15480;SDS011;7842;50.904;6.670;2022-09-27T04:53:33;3.57;;;2.00;;
15480;SDS011;7842;50.904;6.670;2022-09-27T04:55:59;3.00;;;1.97;;
15480;SDS011;7842;50.904;6.670;2022-09-27T04:58:30;3.70;;;1.95;;
15480;SDS011;7842;50.904;6.670;2022-09-27T05:00:58;3.78;;;2.00;;
15480;SDS011;7842;50.904;6.670;2022-09-27T05:03:25;4.10;;;1.93;;
15480;SDS011;7842;50.904;6.670;2022-09-27T05:05:52;4.78;;;1.83;;
15480;SDS011;7842;50.904;6.670;2022-09-27T05:08:18;3.23;;;1.70;;
15480;SDS011;7842;50.904;6.670;2022-09-27T05:10:44;3.42;;;1.60;;
15480;SDS011;7842;50.904;6.670;2022-09-27T05:13:11;3.47;;;1.60;;
15480;SDS011;7842;50.904;6.670;2022-09-27T05:15:37;3.20;;;1.50;;
15480;SDS011;7842;50.904;6.670;2022-09-27T05:18:03;4.50;;;1.52;;
15480;SDS011;7842;50.904;6.670;2022-09-27T05:20:30;3.08;;;1.55;;
15480;SDS011;7842;50.904;6.670;2022-09-27T05:22:56;4.37;;;1.60;;
15480;SDS011;7842;50.904;6.670;2022-09-27T05:25:22;4.15;;;1.50;;
15480;SDS011;7842;50.904;6.670;2022-09-27T05:27:49;4.38;;;2.47;;
15480;SDS011;7842;50.904;6.670;2022-09-27T05:30:14;6.93;;;3.65;;
15480;SDS011;7842;50.904;6.670;2022-09-27T05:32:44;10.68;;;6.25;;
15480;SDS011;7842;50.904;6.670;2022-09-27T05:35:14;3.80;;;2.03;;
15480;SDS011;7842;50.904;6.670;2022-09-27T05:37:42;5.65;;;1.92;;
15480;SDS011;7842;50.904;6.670;2022-09-27T05:40:07;3.42;;;1.60;;
15480;SDS011;7842;50.904;6.670;2022-09-27T05:42:33;4.95;;;2.08;;
15480;SDS011;7842;50.904;6.670;2022-09-27T05:45:03;3.45;;;2.03;;
15480;SDS011;7842;50.904;6.670;2022-09-27T05:47:29;3.20;;;1.60;;
15480;SDS011;7842;50.904;6.670;2022-09-27T05:49:55;3.53;;;1.80;;
15480;SDS011;7842;50.904;6.670;2022-09-27T05:52:21;3.37;;;1.60;;
15480;SDS011;7842;50.904;6.670;2022-09-27T05:54:46;3.63;;;1.70;;
15480;SDS011;7842;50.904;6.670;2022-09-27T05:57:12;4.22;;;1.90;;
15480;SDS011;7842;50.904;6.670;2022-09-27T05:59:37;3.65;;;1.55;;
15480;SDS011;7842;50.904;6.670;2022-09-27T06:02:05;2.38;;;1.33;;
15480;SDS011;7842;50.904;6.670;2022-09-27T06:04:30;2.83;;;1.30;;
15480;SDS011;7842;50.904;6.670;2022-09-27T06:06:56;5.57;;;1.92;;
15480;SDS011;7842;50.904;6.670;2022-09-27T06:09:23;9.38;;;4.47;;
15480;SDS011;7842;50.904;6.670;2022-09-27T06:11:51;5.50;;;2.35;;
15480;SDS011;7842;50.904;6.670;2022-09-27T06:14:17;5.80;;;2.30;;
15480;SDS011;7842;50.904;6.670;2022-09-27T06:16:43;4.38;;;1.65;;
15480;SDS011;7842;50.904;6.670;2022-09-27T06:19:09;2.78;;;1.60;;
15480;SDS011;7842;50.904;6.670;2022-09-27T06:21:35;5.40;;;1.60;;
15480;SDS011;7842;50.904;6.670;2022-09-27T06:24:01;3.87;;;1.60;;
15480;SDS011;7842;50.904;6.670;2022-09-27T06:26:28;3.55;;;1.70;;
15480;SDS011;7842;50.904;6.670;2022-09-27T06:28:54;2.30;;;1.50;;
15480;SDS011;7842;50.904;6.670;2022-09-27T06:31:20;3.53;;;1.67;;
15480;SDS011;7842;50.904;6.670;2022-09-27T06:33:46;3.45;;;1.70;;
15480;SDS011;7842;50.904;6.670;2022-09-27T06:36:13;4.20;;;1.77;;
15480;SDS011;7842;50.904;6.670;2022-09-27T06:38:39;3.47;;;1.30;;
15480;SDS011;7842;50.904;6.670;2022-09-27T06:41:04;2.80;;;1.40;;
15480;SDS011;7842;50.904;6.670;2022-09-27T06:43:30;3.65;;;1.40;;
15480;SDS011;7842;50.904;6.670;2022-09-27T06:45:58;3.22;;;1.45;;
15480;SDS011;7842;50.904;6.670;2022-09-27T06:48:28;3.20;;;1.25;;
15480;SDS011;7842;50.904;6.670;2022-09-27T06:50:55;3.17;;;1.30;;
15480;SDS011;7842;50.904;6.670;2022-09-27T06:53:22;2.53;;;1.13;;
15480;SDS011;7842;50.904;6.670;2022-09-27T06:55:48;3.15;;;1.38;;
15480;SDS011;7842;50.904;6.670;2022-09-27T06:58:15;3.88;;;1.40;;
15480;SDS011;7842;50.904;6.670;2022-09-27T07:01:00;4.55;;;1.60;;
15480;SDS011;7842;50.904;6.670;2022-09-27T07:03:26;3.60;;;1.53;;
15480;SDS011;7842;50.904;6.670;2022-09-27T07:05:59;5.07;;;2.10;;
15480;SDS011;7842;50.904;6.670;2022-09-27T07:08:26;3.67;;;2.08;;
15480;SDS011;7842;50.904;6.670;2022-09-27T07:10:53;2.80;;;1.60;;
15480;SDS011;7842;50.904;6.670;2022-09-27T07:13:20;3.80;;;1.80;;
15480;SDS011;7842;50.904;6.670;2022-09-27T07:15:46;2.85;;;1.60;;
15480;SDS011;7842;50.904;6.670;2022-09-27T07:18:12;3.10;;;1.60;;
15480;SDS011;7842;50.904;6.670;2022-09-27T07:20:38;2.05;;;1.45;;
15480;SDS011;7842;50.904;6.670;2022-09-27T07:23:07;4.43;;;1.50;;
15480;SDS011;7842;50.904;6.670;2022-09-27T07:25:34;3.57;;;1.43;;
15480;SDS011;7842;50.904;6.670;2022-09-27T07:28:01;1.83;;;1.25;;
15480;SDS011;7842;50.904;6.670;2022-09-27T07:30:31;2.38;;;1.40;;
15480;SDS011;7842;50.904;6.670;2022-09-27T07:32:58;4.70;;;1.20;;
15480;SDS011;7842;50.904;6.670;2022-09-27T07:35:25;2.35;;;1.10;;
15480;SDS011;7842;50.904;6.670;2022-09-27T07:37:52;2.13;;;1.10;;
15480;SDS011;7842;50.904;6.670;2022-09-27T07:40:19;1.95;;;1.20;;
15480;SDS011;7842;50.904;6.670;2022-09-27T07:42:44;2.20;;;1.40;;
15480;SDS011;7842;50.904;6.670;2022-09-27T07:45:10;7.10;;;4.60;;
15480;SDS011;7842;50.904;6.670;2022-09-27T07:47:39;3.38;;;2.63;;
15480;SDS011;7842;50.904;6.670;2022-09-27T07:50:07;2.00;;;1.17;;
15480;SDS011;7842;50.904;6.670;2022-09-27T07:52:40;1.92;;;1.10;;
15480;SDS011;7842;50.904;6.670;2022-09-27T07:55:08;1.23;;;1.10;;
15480;SDS011;7842;50.904;6.670;2022-09-27T07:57:35;1.77;;;1.10;;
15480;SDS011;7842;50.904;6.670;2022-09-27T08:00:04;2.30;;;1.13;;
15480;SDS011;7842;50.904;6.670;2022-09-27T08:02:35;2.10;;;1.00;;
15480;SDS011;7842;50.904;6.670;2022-09-27T08:05:00;2.80;;;1.03;;
15480;SDS011;7842;50.904;6.670;2022-09-27T08:07:27;1.88;;;1.08;;
15480;SDS011;7842;50.904;6.670;2022-09-27T08:09:54;2.05;;;1.20;;
15480;SDS011;7842;50.904;6.670;2022-09-27T08:12:20;2.50;;;1.13;;
15480;SDS011;7842;50.904;6.670;2022-09-27T08:14:46;2.58;;;1.23;;
15480;SDS011;7842;50.904;6.670;2022-09-27T08:17:12;2.70;;;1.40;;
15480;SDS011;7842;50.904;6.670;2022-09-27T08:19:39;3.08;;;1.25;;
15480;SDS011;7842;50.904;6.670;2022-09-27T08:22:05;2.47;;;1.30;;
15480;SDS011;7842;50.904;6.670;2022-09-27T08:24:31;1.63;;;1.23;;
15480;SDS011;7842;50.904;6.670;2022-09-27T08:26:58;2.70;;;1.50;;
15480;SDS011;7842;50.904;6.670;2022-09-27T08:29:24;1.90;;;1.30;;
15480;SDS011;7842;50.904;6.670;2022-09-27T08:31:50;2.50;;;1.42;;
15480;SDS011;7842;50.904;6.670;2022-09-27T08:34:17;1.77;;;1.35;;
15480;SDS011;7842;50.904;6.670;2022-09-27T08:36:43;2.10;;;1.50;;
15480;SDS011;7842;50.904;6.670;2022-09-27T08:39:09;2.90;;;1.60;;
15480;SDS011;7842;50.904;6.670;2022-09-27T08:41:36;3.20;;;1.90;;
15480;SDS011;7842;50.904;6.670;2022-09-27T08:44:37;2.63;;;2.08;;
15480;SDS011;7842;50.904;6.670;2022-09-27T08:47:24;2.30;;;2.10;;
15480;SDS011;7842;50.904;6.670;2022-09-27T08:52:36;3.45;;;2.20;;
15480;SDS011;7842;50.904;6.670;2022-09-27T08:55:30;2.92;;;2.10;;
15480;SDS011;7842;50.904;6.670;2022-09-27T08:58:01;2.85;;;2.40;;
15480;SDS011;7842;50.904;6.670;2022-09-27T09:00:36;4.30;;;2.78;;
15480;SDS011;7842;50.904;6.670;2022-09-27T09:03:03;2.97;;;2.50;;
15480;SDS011;7842;50.904;6.670;2022-09-27T09:05:29;3.70;;;2.40;;
15480;SDS011;7842;50.904;6.670;2022-09-27T09:14:00;4.68;;;3.72;;
15480;SDS011;7842;50.904;6.670;2022-09-27T09:30:23;4.75;;;3.10;;
15480;SDS011;7842;50.904;6.670;2022-09-27T09:38:43;5.18;;;3.55;;
15480;SDS011;7842;50.904;6.670;2022-09-27T09:41:21;4.00;;;2.75;;
15480;SDS011;7842;50.904;6.670;2022-09-27T09:46:52;3.78;;;2.58;;
15480;SDS011;7842;50.904;6.670;2022-09-27T09:51:58;4.07;;;2.83;;
15480;SDS011;7842;50.904;6.670;2022-09-27T09:57:14;7.30;;;5.60;;
15480;SDS011;7842;50.904;6.670;2022-09-27T09:59:46;6.30;;;5.18;;
15480;SDS011;7842;50.904;6.670;2022-09-27T10:02:32;3.60;;;2.88;;
15480;SDS011;7842;50.904;6.670;2022-09-27T10:04:59;4.35;;;2.20;;
15480;SDS011;7842;50.904;6.670;2022-09-27T10:07:26;3.90;;;2.35;;
15480;SDS011;7842;50.904;6.670;2022-09-27T10:09:54;2.72;;;2.45;;
15480;SDS011;7842;50.904;6.670;2022-09-27T10:12:23;3.50;;;2.40;;
15480;SDS011;7842;50.904;6.670;2022-09-27T10:14:49;2.50;;;1.90;;
15480;SDS011;7842;50.904;6.670;2022-09-27T10:17:19;2.15;;;1.95;;
15480;SDS011;7842;50.904;6.670;2022-09-27T10:19:47;2.58;;;2.17;;
15480;SDS011;7842;50.904;6.670;2022-09-27T10:24:51;2.87;;;2.20;;
15480;SDS011;7842;50.904;6.670;2022-09-27T10:27:28;3.70;;;2.40;;
15480;SDS011;7842;50.904;6.670;2022-09-27T10:30:05;3.67;;;3.22;;
15480;SDS011;7842;50.904;6.670;2022-09-27T10:32:44;3.83;;;2.80;;
15480;SDS011;7842;50.904;6.670;2022-09-27T10:35:21;3.55;;;3.25;;
15480;SDS011;7842;50.904;6.670;2022-09-27T10:40:41;3.78;;;3.38;;
15480;SDS011;7842;50.904;6.670;2022-09-27T10:46:17;5.32;;;3.47;;
15480;SDS011;7842;50.904;6.670;2022-09-27T10:48:40;3.28;;;2.97;;
15480;SDS011;7842;50.904;6.670;2022-09-27T10:51:18;3.35;;;2.85;;
15480;SDS011;7842;50.904;6.670;2022-09-27T10:53:49;5.30;;;3.90;;
15480;SDS011;7842;50.904;6.670;2022-09-27T10:56:25;5.35;;;3.90;;
15480;SDS011;7842;50.904;6.670;2022-09-27T10:58:53;7.25;;;5.95;;
15480;SDS011;7842;50.904;6.670;2022-09-27T11:01:20;5.00;;;3.70;;
15480;SDS011;7842;50.904;6.670;2022-09-27T11:03:50;4.18;;;3.08;;
15480;SDS011;7842;50.904;6.670;2022-09-27T11:08:52;10.05;;;7.88;;
15480;SDS011;7842;50.904;6.670;2022-09-27T11:11:23;11.98;;;8.20;;
15480;SDS011;7842;50.904;6.670;2022-09-27T11:14:15;8.15;;;5.57;;
15480;SDS011;7842;50.904;6.670;2022-09-27T11:22:44;3.93;;;3.30;;
15480;SDS011;7842;50.904;6.670;2022-09-27T11:33:56;4.03;;;3.55;;
15480;SDS011;7842;50.904;6.670;2022-09-27T11:39:25;4.00;;;2.65;;
15480;SDS011;7842;50.904;6.670;2022-09-27T11:42:18;3.65;;;2.85;;
15480;SDS011;7842;50.904;6.670;2022-09-27T11:45:11;3.58;;;2.70;;
15480;SDS011;7842;50.904;6.670;2022-09-27T12:02:28;4.65;;;2.58;;
15480;SDS011;7842;50.904;6.670;2022-09-27T12:11:03;3.97;;;3.13;;
15480;SDS011;7842;50.904;6.670;2022-09-27T12:13:38;3.05;;;2.60;;
15480;SDS011;7842;50.904;6.670;2022-09-27T12:16:08;3.35;;;2.72;;
15480;SDS011;7842;50.904;6.670;2022-09-27T12:18:37;2.75;;;2.25;;
15480;SDS011;7842;50.904;6.670;2022-09-27T12:21:05;2.65;;;2.20;;
15480;SDS011;7842;50.904;6.670;2022-09-27T12:23:37;2.97;;;2.38;;
15480;SDS011;7842;50.904;6.670;2022-09-27T12:26:12;7.87;;;5.27;;
15480;SDS011;7842;50.904;6.670;2022-09-27T12:28:49;4.00;;;2.50;;
15480;SDS011;7842;50.904;6.670;2022-09-27T12:31:31;2.10;;;1.77;;
15480;SDS011;7842;50.904;6.670;2022-09-27T12:34:03;3.67;;;2.40;;
15480;SDS011;7842;50.904;6.670;2022-09-27T12:36:55;3.10;;;2.15;;
15480;SDS011;7842;50.904;6.670;2022-09-27T12:39:27;1.60;;;1.45;;
15480;SDS011;7842;50.904;6.670;2022-09-27T12:42:16;3.00;;;1.60;;
15480;SDS011;7842;50.904;6.670;2022-09-27T12:44:46;2.63;;;1.40;;
15480;SDS011;7842;50.904;6.670;2022-09-27T12:52:31;3.30;;;1.20;;
15480;SDS011;7842;50.904;6.670;2022-09-27T12:55:16;1.70;;;1.20;;
15480;SDS011;7842;50.904;6.670;2022-09-27T13:00:26;2.20;;;1.20;;
15480;SDS011;7842;50.904;6.670;2022-09-27T13:11:38;1.90;;;1.70;;
15480;SDS011;7842;50.904;6.670;2022-09-27T13:14:28;2.35;;;1.00;;
15480;SDS011;7842;50.904;6.670;2022-09-27T13:16:57;2.08;;;1.20;;
15480;SDS011;7842;50.904;6.670;2022-09-27T13:22:08;1.92;;;0.80;;
15480;SDS011;7842;50.904;6.670;2022-09-27T13:24:53;2.60;;;1.00;;
15480;SDS011;7842;50.904;6.670;2022-09-27T13:29:51;2.13;;;0.85;;
15480;SDS011;7842;50.904;6.670;2022-09-27T13:32:36;2.50;;;0.82;;
15480;SDS011;7842;50.904;6.670;2022-09-27T13:35:10;2.20;;;0.83;;
15480;SDS011;7842;50.904;6.670;2022-09-27T13:40:26;2.65;;;0.90;;
15480;SDS011;7842;50.904;6.670;2022-09-27T13:45:35;2.23;;;0.90;;
15480;SDS011;7842;50.904;6.670;2022-09-27T13:48:16;2.33;;;0.95;;
15480;SDS011;7842;50.904;6.670;2022-09-27T13:51:23;2.03;;;0.90;;
15480;SDS011;7842;50.904;6.670;2022-09-27T13:53:39;4.03;;;1.00;;
15480;SDS011;7842;50.904;6.670;2022-09-27T13:59:01;2.15;;;1.00;;
15480;SDS011;7842;50.904;6.670;2022-09-27T14:01:33;2.40;;;0.90;;
15480;SDS011;7842;50.904;6.670;2022-09-27T14:04:05;2.05;;;1.00;;
15480;SDS011;7842;50.904;6.670;2022-09-27T14:06:35;3.55;;;1.02;;
15480;SDS011;7842;50.904;6.670;2022-09-27T14:09:13;3.38;;;1.10;;
15480;SDS011;7842;50.904;6.670;2022-09-27T14:11:43;3.22;;;1.10;;
15480;SDS011;7842;50.904;6.670;2022-09-27T14:14:17;3.47;;;1.13;;
15480;SDS011;7842;50.904;6.670;2022-09-27T14:16:47;3.35;;;1.20;;
15480;SDS011;7842;50.904;6.670;2022-09-27T14:19:22;3.47;;;1.30;;
15480;SDS011;7842;50.904;6.670;2022-09-27T14:21:50;3.88;;;1.40;;
15480;SDS011;7842;50.904;6.670;2022-09-27T14:26:48;3.67;;;1.50;;
15480;SDS011;7842;50.904;6.670;2022-09-27T14:29:30;3.45;;;1.63;;
15480;SDS011;7842;50.904;6.670;2022-09-27T14:32:05;4.20;;;1.95;;
15480;SDS011;7842;50.904;6.670;2022-09-27T14:34:42;4.70;;;2.00;;
15480;SDS011;7842;50.904;6.670;2022-09-27T14:37:18;4.28;;;2.13;;
15480;SDS011;7842;50.904;6.670;2022-09-27T14:40:05;4.38;;;1.92;;
15480;SDS011;7842;50.904;6.670;2022-09-27T14:42:43;5.25;;;2.03;;
15480;SDS011;7842;50.904;6.670;2022-09-27T14:48:01;3.13;;;1.63;;
15480;SDS011;7842;50.904;6.670;2022-09-27T14:50:41;3.60;;;1.30;;
15480;SDS011;7842;50.904;6.670;2022-09-27T14:53:31;3.28;;;1.77;;
15480;SDS011;7842;50.904;6.670;2022-09-27T14:56:00;3.58;;;1.98;;
15480;SDS011;7842;50.904;6.670;2022-09-27T14:58:26;2.65;;;1.40;;
15480;SDS011;7842;50.904;6.670;2022-09-27T15:00:54;1.80;;;1.10;;
15480;SDS011;7842;50.904;6.670;2022-09-27T15:03:25;1.60;;;1.00;;
15480;SDS011;7842;50.904;6.670;2022-09-27T15:05:54;2.95;;;1.80;;
15480;SDS011;7842;50.904;6.670;2022-09-27T15:08:22;1.42;;;1.20;;
15480;SDS011;7842;50.904;6.670;2022-09-27T15:10:49;1.90;;;1.20;;
15480;SDS011;7842;50.904;6.670;2022-09-27T15:13:16;2.60;;;1.47;;
15480;SDS011;7842;50.904;6.670;2022-09-27T15:15:43;1.70;;;1.20;;
15480;SDS011;7842;50.904;6.670;2022-09-27T15:18:28;1.80;;;1.37;;
15480;SDS011;7842;50.904;6.670;2022-09-27T15:20:57;1.92;;;1.20;;
15480;SDS011;7842;50.904;6.670;2022-09-27T15:23:27;2.40;;;1.20;;
15480;SDS011;7842;50.904;6.670;2022-09-27T15:25:59;2.60;;;1.35;;
15480;SDS011;7842;50.904;6.670;2022-09-27T15:28:27;3.38;;;2.65;;
15480;SDS011;7842;50.904;6.670;2022-09-27T15:30:54;3.60;;;1.60;;
15480;SDS011;7842;50.904;6.670;2022-09-27T15:33:21;2.77;;;1.70;;
15480;SDS011;7842;50.904;6.670;2022-09-27T15:35:59;2.13;;;1.50;;
15480;SDS011;7842;50.904;6.670;2022-09-27T15:38:29;5.50;;;3.42;;
15480;SDS011;7842;50.904;6.670;2022-09-27T15:41:12;9.85;;;7.65;;
15480;SDS011;7842;50.904;6.670;2022-09-27T15:43:40;5.63;;;3.53;;
15480;SDS011;7842;50.904;6.670;2022-09-27T15:51:44;4.00;;;2.58;;
15480;SDS011;7842;50.904;6.670;2022-09-27T15:54:10;3.15;;;2.20;;
15480;SDS011;7842;50.904;6.670;2022-09-27T15:56:36;3.67;;;1.80;;
15480;SDS011;7842;50.904;6.670;2022-09-27T15:59:03;2.40;;;1.67;;
15480;SDS011;7842;50.904;6.670;2022-09-27T16:01:31;2.40;;;1.40;;
15480;SDS011;7842;50.904;6.670;2022-09-27T16:03:57;2.97;;;1.48;;
15480;SDS011;7842;50.904;6.670;2022-09-27T16:06:24;3.28;;;1.50;;
15480;SDS011;7842;50.904;6.670;2022-09-27T16:08:52;3.03;;;1.65;;
15480;SDS011;7842;50.904;6.670;2022-09-27T16:11:18;3.95;;;1.90;;
15480;SDS011;7842;50.904;6.670;2022-09-27T16:13:43;2.57;;;1.67;;
15480;SDS011;7842;50.904;6.670;2022-09-27T16:16:16;2.42;;;1.50;;
15480;SDS011;7842;50.904;6.670;2022-09-27T16:18:43;4.18;;;1.55;;
15480;SDS011;7842;50.904;6.670;2022-09-27T16:21:10;3.15;;;1.50;;
15480;SDS011;7842;50.904;6.670;2022-09-27T16:23:36;2.47;;;1.60;;
15480;SDS011;7842;50.904;6.670;2022-09-27T16:26:02;3.28;;;2.05;;
15480;SDS011;7842;50.904;6.670;2022-09-27T16:28:27;3.77;;;2.47;;
15480;SDS011;7842;50.904;6.670;2022-09-27T16:30:53;4.17;;;2.00;;
15480;SDS011;7842;50.904;6.670;2022-09-27T16:33:18;2.43;;;1.63;;
15480;SDS011;7842;50.904;6.670;2022-09-27T16:35:44;3.60;;;1.83;;
15480;SDS011;7842;50.904;6.670;2022-09-27T16:38:09;3.30;;;1.70;;
15480;SDS011;7842;50.904;6.670;2022-09-27T16:40:35;2.33;;;1.90;;
15480;SDS011;7842;50.904;6.670;2022-09-27T16:43:01;2.58;;;2.10;;
15480;SDS011;7842;50.904;6.670;2022-09-27T16:45:31;2.58;;;2.10;;
15480;SDS011;7842;50.904;6.670;2022-09-27T16:48:00;2.47;;;2.20;;
15480;SDS011;7842;50.904;6.670;2022-09-27T16:50:26;2.75;;;2.20;;
15480;SDS011;7842;50.904;6.670;2022-09-27T16:53:10;3.25;;;1.98;;
15480;SDS011;7842;50.904;6.670;2022-09-27T16:55:37;3.75;;;2.20;;
15480;SDS011;7842;50.904;6.670;2022-09-27T16:58:03;3.03;;;2.30;;
15480;SDS011;7842;50.904;6.670;2022-09-27T17:00:31;3.17;;;2.30;;
15480;SDS011;7842;50.904;6.670;2022-09-27T17:02:57;2.80;;;2.20;;
15480;SDS011;7842;50.904;6.670;2022-09-27T17:05:23;4.18;;;2.85;;
15480;SDS011;7842;50.904;6.670;2022-09-27T17:07:50;4.50;;;3.30;;
15480;SDS011;7842;50.904;6.670;2022-09-27T17:10:17;4.78;;;3.50;;
15480;SDS011;7842;50.904;6.670;2022-09-27T17:12:44;6.10;;;4.70;;
15480;SDS011;7842;50.904;6.670;2022-09-27T17:15:11;7.87;;;5.23;;
15480;SDS011;7842;50.904;6.670;2022-09-27T17:17:37;5.72;;;3.78;;
15480;SDS011;7842;50.904;6.670;2022-09-27T17:20:03;6.70;;;3.88;;
15480;SDS011;7842;50.904;6.670;2022-09-27T17:22:29;6.50;;;4.70;;
15480;SDS011;7842;50.904;6.670;2022-09-27T17:24:55;11.50;;;7.25;;
15480;SDS011;7842;50.904;6.670;2022-09-27T17:27:21;8.30;;;4.82;;
15480;SDS011;7842;50.904;6.670;2022-09-27T17:29:50;6.40;;;4.90;;
15480;SDS011;7842;50.904;6.670;2022-09-27T17:32:16;7.57;;;5.20;;
15480;SDS011;7842;50.904;6.670;2022-09-27T17:34:45;9.85;;;6.82;;
15480;SDS011;7842;50.904;6.670;2022-09-27T17:37:11;7.47;;;4.80;;
15480;SDS011;7842;50.904;6.670;2022-09-27T17:39:37;5.15;;;4.00;;
15480;SDS011;7842;50.904;6.670;2022-09-27T17:42:02;6.65;;;3.83;;
15480;SDS011;7842;50.904;6.670;2022-09-27T17:44:28;5.15;;;3.80;;
15480;SDS011;7842;50.904;6.670;2022-09-27T17:46:55;4.85;;;3.70;;
15480;SDS011;7842;50.904;6.670;2022-09-27T17:49:41;4.47;;;4.05;;
15480;SDS011;7842;50.904;6.670;2022-09-27T17:52:27;4.68;;;4.00;;
15480;SDS011;7842;50.904;6.670;2022-09-27T17:54:55;8.55;;;6.65;;
15480;SDS011;7842;50.904;6.670;2022-09-27T17:57:22;8.95;;;6.15;;
15480;SDS011;7842;50.904;6.670;2022-09-27T17:59:48;10.32;;;7.60;;
15480;SDS011;7842;50.904;6.670;2022-09-27T18:02:15;9.27;;;7.25;;
15480;SDS011;7842;50.904;6.670;2022-09-27T18:04:41;6.77;;;5.80;;
15480;SDS011;7842;50.904;6.670;2022-09-27T18:07:07;7.07;;;6.00;;